EST,Max TemperatureF,Mean TemperatureF,Min TemperatureF,Max Dew PointF,MeanDew PointF,Min DewpointF,Max Humidity, Mean Humidity, Min Humidity, Max Sea Level PressureIn, Mean Sea Level PressureIn, Min Sea Level PressureIn, Max VisibilityMiles, Mean VisibilityMiles, Min VisibilityMiles, Max Wind SpeedMPH, Mean Wind SpeedMPH, Max Gust SpeedMPH,PrecipitationIn, CloudCover, Events, WindDirDegrees
2011-11-1,60,46,33,39,35,30,100,76,39,30.21,30.17,30.12,10,8,2,13,3,18,0.00,0,,184
2011-11-2,62,53,44,43,38,34,71,56,42,30.16,30.10,30.01,10,10,10,18,10,22,0.00,0,,195
2011-11-3,53,48,44,45,42,39,93,79,58,30.05,29.99,29.95,10,9,3,18,8,29,0.00,5,,51
2011-11-4,51,42,33,36,31,27,93,70,38,30.30,30.24,30.14,10,10,7,14,9,18,0.00,0,,57
2011-11-5,55,42,30,32,28,27,93,61,35,30.31,30.27,30.17,10,10,10,13,6,17,0.00,0,,138
2011-11-6,60,50,39,45,36,28,76,61,52,30.17,30.14,30.08,10,10,10,24,10,31,0.00,0,,182
2011-11-7,55,53,51,52,48,43,100,83,63,30.24,30.20,30.15,10,7,1,13,7,16,0.00,7,Rain,215
2011-11-8,62,56,51,55,53,52,100,83,68,30.18,30.04,29.95,10,8,2,15,7,21,0.00,7,Rain,168
2011-11-9,62,50,37,55,50,36,100,86,67,29.93,29.75,29.58,10,9,2,40,12,53,0.00,7,Rain,185
2011-11-10,39,36,32,36,31,27,100,84,61,29.94,29.92,29.89,10,8,0,18,10,25,0.00,5,Snow,247
2011-11-11,41,36,30,32,29,27,100,80,61,30.00,29.94,29.84,10,10,7,16,8,18,0.00,4,Snow,234
2011-11-12,57,44,32,39,34,27,87,65,48,29.87,29.81,29.75,10,10,10,20,9,24,0.00,0,,207
2011-11-13,64,58,51,54,46,37,72,66,54,29.72,29.56,29.45,10,10,10,31,20,39,0.00,6,,203
2011-11-14,53,48,41,45,37,30,100,73,41,29.68,29.62,29.54,10,9,2,9,5,,0.00,3,,230
2011-11-15,57,47,37,52,44,37,100,90,67,29.81,29.77,29.73,10,6,0,18,5,22,0.00,2,Fog,203
2011-11-16,46,39,32,46,30,19,100,68,46,30.08,29.96,29.80,10,9,4,16,7,26,0.00,0,,301
2011-11-17,32,28,24,21,19,16,80,65,51,30.22,30.11,30.05,10,10,10,20,8,25,0.00,3,Snow,255
2011-11-18,46,34,23,19,17,16,74,51,29,30.24,30.14,29.98,10,10,10,26,10,36,0.00,1,,196
2011-11-19,51,44,37,45,31,19,87,61,39,30.01,29.93,29.82,10,10,7,23,12,33,0.00,6,,199
2011-11-20,57,47,37,52,39,30,82,75,62,30.30,30.12,29.84,10,10,10,23,12,36,0.00,5,,318
2011-11-21,46,40,33,36,32,30,87,77,62,30.33,30.27,30.23,10,10,7,10,7,17,0.00,3,,82
2011-11-22,41,37,33,39,35,30,100,92,87,30.22,29.99,29.76,10,6,2,21,11,26,0.00,5,Rain-Snow,72
2011-11-23,50,40,30,39,35,28,100,86,62,30.23,30.12,29.88,10,8,0,12,7,17,0.00,1,Fog-Rain,289
2011-11-24,44,38,32,41,37,32,100,94,81,30.25,30.20,30.13,10,4,0,17,10,22,0.00,7,Fog,223
2011-11-25,57,47,37,43,40,36,93,77,59,30.11,30.03,29.95,10,8,5,22,12,29,0.00,0,,211
2011-11-26,62,54,46,54,45,39,94,76,63,29.99,29.93,29.83,10,10,7,22,10,26,0.00,4,Rain,196
2011-11-27,55,45,35,54,44,34,100,95,87,30.04,29.85,29.72,10,9,4,17,10,23,0.00,8,Rain,297
2011-11-28,35,34,32,34,30,28,100,86,81,30.11,30.04,29.93,10,9,3,13,9,17,0.00,6,Snow,29
2011-11-29,35,34,32,36,33,30,100,94,87,29.89,29.77,29.67,10,6,0,24,14,36,0.00,8,Snow,15
2011-11-30,39,31,23,30,27,23,100,86,65,30.12,29.96,29.79,10,9,0,10,3,,0.00,1,Fog-Snow,299